Time;durP1;ratioP1;P1;durP2;ratioP2;P2;SDS_P1;SDS_P2;PMS_P1;PMS_P2;Temp;Humidity;BMP_temperature;BMP_pressure;BME280_temperature;BME280_humidity;BME280_pressure;Samples;Min_cycle;Max_cycle;Signal;HPM_P1;HPM_P2
2022/07/04 00:01:09;;;;;;;9.70;8.80;;;;;;;17.73;76.69;100485.95;1640058;87;25539;-74
2022/07/04 00:03:35;;;;;;;9.75;8.50;;;;;;;17.72;76.59;100482.97;1640173;87;25642;-74
2022/07/04 00:06:02;;;;;;;9.25;8.35;;;;;;;17.70;76.91;100477.06;1640398;87;25550;-74
2022/07/04 00:08:28;;;;;;;13.13;9.68;;;;;;;17.67;77.06;100479.95;1640136;87;27452;-74
2022/07/04 00:10:54;;;;;;;9.83;8.83;;;;;;;17.64;77.14;100478.47;1640173;87;25551;-74
2022/07/04 00:13:21;;;;;;;11.33;9.68;;;;;;;17.62;76.79;100483.50;1640239;87;25634;-74
2022/07/04 00:15:47;;;;;;;10.85;9.78;;;;;;;17.59;77.22;100478.73;1618090;87;26369;-74
2022/07/04 00:18:13;;;;;;;9.80;8.80;;;;;;;17.58;77.50;100478.53;1640176;87;25653;-74
2022/07/04 00:20:39;;;;;;;10.78;8.23;;;;;;;17.54;77.16;100479.23;1640724;87;27311;-74
2022/07/04 00:23:05;;;;;;;10.70;9.38;;;;;;;17.53;77.12;100484.45;1639207;87;25537;-74
2022/07/04 00:25:31;;;;;;;10.48;9.38;;;;;;;17.53;77.09;100480.94;1638020;87;25623;-75
2022/07/04 00:27:57;;;;;;;9.10;8.10;;;;;;;17.51;77.25;100482.66;1668408;83;25571;-77
2022/07/04 00:30:24;;;;;;;9.50;8.53;;;;;;;17.50;77.32;100480.27;1711640;83;25572;-77
2022/07/04 00:32:50;;;;;;;10.23;8.50;;;;;;;17.49;77.48;100480.85;1711548;83;27400;-77
2022/07/04 00:35:16;;;;;;;9.88;9.00;;;;;;;17.47;77.31;100465.92;1711710;83;25702;-77
2022/07/04 00:37:42;;;;;;;10.25;8.58;;;;;;;17.46;77.59;100467.87;1711652;83;25653;-77
2022/07/04 00:40:10;;;;;;;11.40;9.08;;;;;;;17.44;77.48;100463.34;1711723;83;26281;-77
2022/07/04 00:42:36;;;;;;;9.15;8.25;;;;;;;17.43;77.68;100463.69;1711578;83;25541;-77
2022/07/04 00:45:02;;;;;;;8.85;7.95;;;;;;;17.43;77.63;100462.31;1711724;83;27514;-77
2022/07/04 00:47:29;;;;;;;9.78;8.78;;;;;;;17.42;77.68;100462.91;1711824;83;25386;-77
2022/07/04 00:49:55;;;;;;;10.10;8.88;;;;;;;17.41;77.56;100453.09;1711537;83;25648;-77
2022/07/04 00:52:21;;;;;;;10.48;9.18;;;;;;;17.40;77.60;100458.36;1711637;83;26268;-77
2022/07/04 00:54:47;;;;;;;10.63;8.85;;;;;;;17.38;77.80;100461.99;1711502;83;25634;-77
2022/07/04 00:57:13;;;;;;;10.78;9.35;;;;;;;17.36;77.65;100451.41;1711481;83;27168;-77
2022/07/04 00:59:41;;;;;;;10.80;9.70;;;;;;;17.35;77.69;100453.16;1711597;83;25619;-77
2022/07/04 01:02:07;;;;;;;12.45;9.68;;;;;;;17.33;78.04;100447.22;1711631;83;25574;-77
2022/07/04 01:04:34;;;;;;;10.40;9.35;;;;;;;17.31;77.76;100449.52;1711563;83;25690;-77
2022/07/04 01:07:03;;;;;;;10.63;9.63;;;;;;;17.29;78.02;100442.24;1711431;83;25565;-77
2022/07/04 01:09:29;;;;;;;10.75;9.65;;;;;;;17.28;77.96;100442.83;1711846;83;27994;-77
2022/07/04 01:11:56;;;;;;;12.63;10.25;;;;;;;17.24;77.96;100440.55;1711343;83;25549;-77
2022/07/04 01:14:22;;;;;;;10.20;9.20;;;;;;;17.22;78.12;100437.37;1711716;83;25481;-77
2022/07/04 01:16:48;;;;;;;10.95;9.90;;;;;;;17.20;77.87;100432.03;1711494;83;25652;-77
2022/07/04 01:19:14;;;;;;;10.78;9.25;;;;;;;17.18;78.19;100435.92;1711879;83;25472;-77
2022/07/04 01:21:41;;;;;;;11.18;9.15;;;;;;;17.14;77.98;100432.28;1708064;83;27453;-77
2022/07/04 01:24:14;;;;;;;10.25;8.60;;;;;;;17.14;77.95;100434.23;1704758;83;25676;-77
2022/07/04 01:26:40;;;;;;;9.40;8.33;;;;;;;17.12;77.60;100431.06;1705674;84;25637;-77
2022/07/04 01:29:06;;;;;;;10.15;9.20;;;;;;;17.08;77.63;100425.50;1706971;83;26223;-77
2022/07/04 01:31:32;;;;;;;10.05;9.08;;;;;;;17.05;77.71;100431.66;1707116;83;25573;-77
2022/07/04 01:33:58;;;;;;;10.28;9.30;;;;;;;17.02;77.61;100437.81;1706957;83;27381;-77
2022/07/04 01:36:25;;;;;;;12.18;9.33;;;;;;;16.96;77.58;100437.28;1706776;83;25629;-77
2022/07/04 01:38:51;;;;;;;9.85;8.85;;;;;;;16.94;77.93;100439.58;1707549;83;25399;-76
2022/07/04 01:41:18;;;;;;;10.23;8.90;;;;;;;16.91;77.78;100443.58;1707002;83;25629;-76
2022/07/04 01:43:44;;;;;;;11.12;9.40;;;;;;;16.87;77.67;100443.45;1707011;83;25452;-76
2022/07/04 01:46:10;;;;;;;10.28;9.28;;;;;;;16.85;77.92;100444.95;1706866;83;27380;-76
2022/07/04 01:48:36;;;;;;;10.50;9.18;;;;;;;16.80;78.17;100437.22;1706873;83;25764;-76
2022/07/04 01:51:02;;;;;;;11.35;9.93;;;;;;;16.77;77.93;100446.10;1707104;83;25467;-76
2022/07/04 01:53:28;;;;;;;9.65;8.65;;;;;;;16.76;78.34;100443.13;1706921;83;25708;-76
2022/07/04 01:55:54;;;;;;;10.82;9.33;;;;;;;16.73;78.23;100444.41;1707012;83;25228;-76
2022/07/04 01:58:20;;;;;;;10.28;9.23;;;;;;;16.71;78.02;100443.38;1706745;84;26962;-76
2022/07/04 02:03:31;;;;;;;9.90;8.85;;;;;;;16.66;78.25;100444.20;1706976;83;25566;-76
2022/07/04 02:05:57;;;;;;;10.08;9.18;;;;;;;16.62;78.33;100442.16;1706877;84;26352;-76
2022/07/04 02:09:14;;;;;;;10.80;9.70;;;;;;;16.60;78.28;100435.44;1707226;83;25606;-76
2022/07/04 02:10:52;;;;;;;11.28;9.70;;;;;;;16.58;78.42;100444.00;1703330;84;27407;-76
2022/07/04 02:13:18;;;;;;;11.28;9.25;;;;;;;16.55;78.47;100439.78;1706566;83;25618;-76
2022/07/04 02:15:44;;;;;;;11.15;10.03;;;;;;;16.53;78.41;100437.97;1707177;83;25643;-76
2022/07/04 02:18:11;;;;;;;10.58;9.48;;;;;;;16.50;78.21;100437.29;1706888;83;25690;-76
2022/07/04 02:20:38;;;;;;;10.55;9.48;;;;;;;16.48;78.67;100443.13;1706907;83;25584;-76
2022/07/04 02:23:05;;;;;;;10.55;9.58;;;;;;;16.45;78.53;100436.98;1711418;83;27310;-76
2022/07/04 02:25:32;;;;;;;11.73;10.40;;;;;;;16.43;78.63;100440.63;1709979;83;25590;-76
2022/07/04 02:27:59;;;;;;;11.18;10.15;;;;;;;16.40;78.70;100439.38;1740137;82;25596;-76
2022/07/04 02:30:26;;;;;;;12.40;11.10;;;;;;;16.39;78.91;100441.86;1747953;82;26397;-76
2022/07/04 02:32:52;;;;;;;11.97;10.78;;;;;;;16.37;78.98;100444.16;1747571;82;25438;-77
2022/07/04 02:35:18;;;;;;;11.35;10.18;;;;;;;16.36;78.93;100449.95;1729215;82;27366;-75
2022/07/04 02:37:44;;;;;;;12.75;10.08;;;;;;;16.32;78.92;100443.02;1747594;82;25610;-75
2022/07/04 02:40:11;;;;;;;11.55;10.38;;;;;;;16.31;78.85;100439.27;1747792;82;25470;-75
2022/07/04 02:42:37;;;;;;;10.55;9.55;;;;;;;16.28;78.73;100438.59;1747568;82;25638;-75
2022/07/04 02:45:06;;;;;;;12.88;10.35;;;;;;;16.25;78.67;100440.87;1747934;82;25397;-75
2022/07/04 02:47:32;;;;;;;13.18;10.65;;;;;;;16.24;78.92;100437.94;1747639;82;27154;-75
2022/07/04 02:49:58;;;;;;;13.45;10.00;;;;;;;16.22;79.02;100436.67;1747531;82;25546;-75
2022/07/04 02:52:24;;;;;;;13.28;11.88;;;;;;;16.20;79.04;100428.04;1747644;82;25397;-77
2022/07/04 02:54:52;;;;;;;15.50;12.35;;;;;;;16.21;79.79;100429.64;1747622;82;25698;-77
2022/07/04 02:57:19;;;;;;;14.90;12.47;;;;;;;16.21;80.34;100431.80;1718673;82;25590;-75
2022/07/04 02:59:45;;;;;;;14.10;12.25;;;;;;;16.20;80.32;100431.55;1711660;83;27376;-75
2022/07/04 03:02:11;;;;;;;14.10;12.37;;;;;;;16.24;80.74;100435.20;1747761;82;25715;-75
2022/07/04 03:04:39;;;;;;;13.40;12.10;;;;;;;16.28;81.38;100424.39;1747314;82;25566;-75
2022/07/04 03:07:08;;;;;;;14.95;11.63;;;;;;;16.30;81.52;100432.23;1711176;83;25824;-75
2022/07/04 03:09:34;;;;;;;12.88;11.60;;;;;;;16.32;81.30;100428.02;1711072;83;25589;-75
2022/07/04 03:12:05;;;;;;;12.53;11.22;;;;;;;16.36;81.26;100434.39;1710513;83;27383;-75
2022/07/04 03:14:31;;;;;;;11.18;10.08;;;;;;;16.37;81.04;100434.59;1745840;82;25770;-75
2022/07/04 03:16:57;;;;;;;11.88;10.68;;;;;;;16.39;80.82;100436.98;1747179;82;25633;-75
2022/07/04 03:19:23;;;;;;;12.68;10.45;;;;;;;16.39;80.76;100435.04;1747813;82;25613;-76
2022/07/04 03:21:49;;;;;;;11.20;10.03;;;;;;;16.41;80.60;100438.25;1718390;82;25640;-76
2022/07/04 03:24:15;;;;;;;12.80;9.93;;;;;;;16.41;80.50;100438.80;1747235;82;27359;-75
2022/07/04 03:26:41;;;;;;;10.48;9.43;;;;;;;16.40;80.42;100438.01;1747718;82;25629;-75
2022/07/04 03:29:08;;;;;;;11.88;10.75;;;;;;;16.42;80.39;100454.05;1735517;82;25662;-75
2022/07/04 03:31:34;;;;;;;14.25;12.75;;;;;;;16.42;80.62;100452.10;1747874;82;25724;-75
2022/07/04 03:34:00;;;;;;;12.25;10.95;;;;;;;16.47;81.11;100453.80;1747918;81;25469;-75
2022/07/04 03:36:26;;;;;;;15.20;13.72;;;;;;;16.50;81.37;100453.13;1747878;82;27314;-75
2022/07/04 03:38:52;;;;;;;13.32;11.85;;;;;;;16.54;81.27;100455.95;1747795;82;25542;-75
2022/07/04 03:41:19;;;;;;;11.95;10.65;;;;;;;16.59;81.59;100457.08;1747723;82;25574;-75
2022/07/04 03:43:45;;;;;;;14.28;12.20;;;;;;;16.60;81.43;100460.83;1747834;82;25741;-75
2022/07/04 03:46:11;;;;;;;17.15;15.10;;;;;;;16.65;81.77;100461.14;1747639;82;25639;-75
2022/07/04 03:48:37;;;;;;;14.53;12.80;;;;;;;16.68;81.91;100465.91;1747409;82;27101;-75
2022/07/04 03:51:03;;;;;;;16.00;14.03;;;;;;;16.73;82.28;100465.67;1747775;82;25646;-75
2022/07/04 03:53:29;;;;;;;15.48;13.95;;;;;;;16.79;82.59;100458.83;1747132;82;25418;-75
2022/07/04 03:55:55;;;;;;;16.80;14.93;;;;;;;16.85;82.75;100460.77;1747679;82;25641;-75
2022/07/04 03:58:21;;;;;;;15.58;14.07;;;;;;;16.91;83.01;100455.88;1747554;82;25575;-76
2022/07/04 04:00:47;;;;;;;15.95;13.10;;;;;;;16.98;83.25;100457.43;1747810;82;27490;-76
2022/07/04 04:05:58;;;;;;;14.68;12.53;;;;;;;17.12;83.67;100446.87;1746919;82;25568;-74
2022/07/04 04:08:24;;;;;;;15.48;13.88;;;;;;;17.21;83.65;100458.23;1747831;82;25634;-74
2022/07/04 04:10:51;;;;;;;14.25;12.75;;;;;;;17.27;83.79;100455.47;1747855;82;25676;-74
2022/07/04 04:13:17;;;;;;;16.00;14.35;;;;;;;17.36;84.04;100462.34;1747408;82;27320;-74
2022/07/04 04:15:43;;;;;;;15.58;13.20;;;;;;;17.45;84.27;100457.28;1747703;82;25455;-74
2022/07/04 04:18:10;;;;;;;13.90;12.45;;;;;;;17.51;84.22;100453.16;1747733;82;25417;-74
2022/07/04 04:20:36;;;;;;;14.58;13.08;;;;;;;17.60;84.22;100443.41;1747503;82;25638;-74
2022/07/04 04:23:03;;;;;;;16.20;14.45;;;;;;;17.69;84.48;100446.75;1695126;83;25514;-74
2022/07/04 04:25:29;;;;;;;16.42;14.83;;;;;;;17.77;85.04;100445.78;1683325;84;27390;-74
2022/07/04 04:27:55;;;;;;;15.63;14.15;;;;;;;17.87;85.44;100441.17;1673586;85;25606;-74
2022/07/04 04:30:21;;;;;;;17.30;14.18;;;;;;;17.98;85.35;100441.99;1704849;84;25438;-74
2022/07/04 04:32:47;;;;;;;15.63;13.75;;;;;;;18.06;85.36;100432.80;1705823;84;25563;-74
2022/07/04 04:35:14;;;;;;;13.85;12.55;;;;;;;18.17;85.73;100435.22;1707172;84;25467;-74
2022/07/04 04:37:39;;;;;;;14.38;12.88;;;;;;;18.27;85.73;100436.03;1707123;83;27334;-74
2022/07/04 04:40:08;;;;;;;14.13;12.03;;;;;;;18.39;85.92;100428.83;1707094;84;25641;-74
2022/07/04 04:42:37;;;;;;;14.23;12.83;;;;;;;18.48;85.93;100434.31;1707363;84;25478;-74
2022/07/04 04:45:03;;;;;;;15.55;13.72;;;;;;;18.58;86.05;100435.70;1706880;84;26120;-74
2022/07/04 04:47:29;;;;;;;14.68;13.15;;;;;;;18.70;85.97;100438.88;1707165;84;25640;-74
2022/07/04 04:49:55;;;;;;;13.32;12.05;;;;;;;18.80;86.03;100428.70;1707141;84;28048;-74
2022/07/04 04:52:22;;;;;;;15.60;12.75;;;;;;;18.89;85.76;100429.88;1707052;83;25550;-75
2022/07/04 04:54:48;;;;;;;13.10;11.70;;;;;;;19.00;85.79;100428.15;1707154;84;25201;-75
2022/07/04 04:57:16;;;;;;;13.10;11.55;;;;;;;19.10;85.41;100430.86;1707128;84;25666;-76
2022/07/04 04:59:42;;;;;;;11.65;10.55;;;;;;;19.20;85.46;100426.73;1707214;84;25273;-76
2022/07/04 05:02:09;;;;;;;13.55;11.35;;;;;;;19.32;85.38;100430.66;1707158;84;27338;-76
2022/07/04 05:04:35;;;;;;;12.75;11.10;;;;;;;19.41;85.39;100431.23;1707017;83;25782;-76
2022/07/04 05:07:02;;;;;;;13.68;10.48;;;;;;;19.53;85.27;100434.38;1707255;84;25446;-76
2022/07/04 05:09:28;;;;;;;11.75;10.63;;;;;;;19.63;84.86;100430.78;1707246;84;26207;-76
2022/07/04 05:11:54;;;;;;;11.73;10.60;;;;;;;19.72;84.17;100432.72;1707296;84;25443;-76
2022/07/04 05:14:20;;;;;;;13.32;11.95;;;;;;;19.81;84.05;100428.37;1707311;84;27324;-76
2022/07/04 05:16:46;;;;;;;14.80;11.45;;;;;;;19.92;84.06;100431.49;1707188;83;25661;-75
2022/07/04 05:19:12;;;;;;;11.97;10.75;;;;;;;20.04;83.77;100435.17;1707448;84;25412;-75
2022/07/04 05:21:39;;;;;;;13.25;11.50;;;;;;;20.12;83.12;100438.23;1707485;84;26249;-75
2022/07/04 05:24:06;;;;;;;14.47;11.18;;;;;;;20.21;82.77;100442.89;1711691;83;25483;-74
2022/07/04 05:26:32;;;;;;;10.93;9.83;;;;;;;20.29;82.58;100437.69;1748436;82;27050;-76
2022/07/04 05:28:58;;;;;;;11.88;10.72;;;;;;;20.40;82.42;100443.91;1748369;82;25567;-76
2022/07/04 05:31:25;;;;;;;10.78;9.73;;;;;;;20.49;81.97;100443.84;1748882;82;25555;-75
2022/07/04 05:33:54;;;;;;;10.48;9.48;;;;;;;20.61;81.89;100451.06;1750043;82;25617;-75
2022/07/04 05:36:22;;;;;;;11.30;10.03;;;;;;;20.73;81.57;100443.19;1750606;82;25659;-75
2022/07/04 05:38:48;;;;;;;10.95;9.50;;;;;;;20.91;81.90;100443.41;1750471;81;27333;-75
2022/07/04 05:41:14;;;;;;;13.98;11.35;;;;;;;21.10;82.05;100437.52;1750648;82;25234;-76
2022/07/04 05:43:41;;;;;;;11.83;9.05;;;;;;;21.31;81.54;100441.84;1714694;83;25464;-76
2022/07/04 05:46:08;;;;;;;10.90;9.80;;;;;;;21.50;81.16;100435.95;1749571;82;26469;-76
2022/07/04 05:48:34;;;;;;;13.95;12.55;;;;;;;21.68;80.70;100438.27;1737881;82;25203;-75
2022/07/04 05:51:00;;;;;;;11.85;10.68;;;;;;;21.87;79.96;100443.33;1750976;81;27312;-75
2022/07/04 05:53:26;;;;;;;13.68;11.33;;;;;;;21.99;78.81;100438.28;1750658;81;25208;-75
2022/07/04 05:55:53;;;;;;;10.93;9.93;;;;;;;22.13;78.38;100442.31;1750962;82;25613;-75
2022/07/04 05:58:19;;;;;;;10.60;9.60;;;;;;;22.30;77.73;100440.86;1750645;82;25797;-75
2022/07/04 06:00:45;;;;;;;9.33;8.48;;;;;;;22.41;76.59;100445.05;1750798;82;25219;-75
2022/07/04 06:03:12;;;;;;;9.70;8.80;;;;;;;22.54;76.23;100442.97;1750499;82;27421;-75
2022/07/04 06:05:38;;;;;;;9.93;8.85;;;;;;;22.69;75.71;100439.66;1750509;81;25775;-75
2022/07/04 06:08:04;;;;;;;10.45;8.05;;;;;;;22.82;74.22;100451.73;1750377;82;25259;-75
2022/07/04 06:10:33;;;;;;;12.33;8.93;;;;;;;22.91;74.46;100453.53;1750339;82;25473;-75
2022/07/04 06:12:59;;;;;;;10.00;9.00;;;;;;;23.04;73.64;100452.00;1750214;82;25207;-75
2022/07/04 06:15:26;;;;;;;9.95;8.78;;;;;;;23.15;72.82;100457.55;1749836;82;27312;-75
2022/07/04 06:17:52;;;;;;;10.98;8.80;;;;;;;23.22;72.02;100454.02;1723883;82;25511;-75
2022/07/04 06:20:18;;;;;;;13.08;10.38;;;;;;;23.29;71.30;100449.32;1749125;82;25587;-75
2022/07/04 06:22:49;;;;;;;12.13;10.78;;;;;;;23.39;71.15;100446.95;1749585;82;25642;-75
2022/07/04 06:25:19;;;;;;;17.15;11.75;;;;;;;23.42;70.17;100439.27;1750332;81;25379;-75
2022/07/04 06:27:48;;;;;;;7.78;7.03;;;;;;;23.48;69.98;100435.73;1687212;83;27331;-75
2022/07/04 06:30:16;;;;;;;8.48;6.62;;;;;;;23.65;69.79;100435.53;1714565;83;25418;-76
2022/07/04 06:32:45;;;;;;;7.75;7.05;;;;;;;23.83;69.03;100433.37;1682674;85;25350;-76
2022/07/04 06:38:02;;;;;;;6.33;5.05;;;;;;;24.19;68.08;100423.03;1683908;85;25294;-75
2022/07/04 06:40:28;;;;;;;5.75;5.25;;;;;;;24.18;66.58;100416.55;1713616;83;27302;-75
2022/07/04 06:42:55;;;;;;;7.37;6.22;;;;;;;24.15;65.63;100415.96;1683459;85;25475;-75
2022/07/04 06:45:21;;;;;;;7.20;5.80;;;;;;;24.30;66.11;100411.19;1712914;83;25588;-75
2022/07/04 06:47:50;;;;;;;7.83;6.42;;;;;;;24.50;66.34;100411.48;1693023;83;25539;-75
2022/07/04 06:50:17;;;;;;;6.85;5.95;;;;;;;24.58;65.67;100413.84;1688917;83;25259;-75
2022/07/04 06:52:45;;;;;;;10.32;6.37;;;;;;;24.60;65.19;100405.95;1683318;85;27341;-75
2022/07/04 06:55:12;;;;;;;9.20;6.22;;;;;;;24.56;64.35;100405.77;1713395;83;25292;-76
2022/07/04 06:57:38;;;;;;;8.18;5.83;;;;;;;24.53;64.31;100403.17;1662942;85;25456;-76
2022/07/04 07:00:08;;;;;;;7.12;6.37;;;;;;;24.70;64.69;100396.01;1713019;83;25614;-75
2022/07/04 07:02:36;;;;;;;7.05;6.35;;;;;;;24.79;63.96;100399.71;1683136;85;25480;-76
2022/07/04 07:05:06;;;;;;;11.70;6.67;;;;;;;24.81;62.96;100397.35;1712992;83;27477;-76
2022/07/04 07:07:33;;;;;;;8.15;6.80;;;;;;;24.76;62.19;100393.63;1682730;85;25243;-76
2022/07/04 07:09:59;;;;;;;11.22;7.47;;;;;;;24.64;61.89;100387.95;1716613;83;25709;-76
2022/07/04 07:12:25;;;;;;;12.68;7.47;;;;;;;24.61;62.02;100391.53;1712928;83;25611;-76
2022/07/04 07:14:53;;;;;;;11.48;8.23;;;;;;;24.59;62.17;100391.92;1682702;85;25630;-76
2022/07/04 07:17:20;;;;;;;11.90;9.23;;;;;;;24.60;62.12;100397.66;1692851;83;27336;-76
2022/07/04 07:19:46;;;;;;;11.97;9.98;;;;;;;24.64;62.20;100399.02;1712990;83;25230;-75
2022/07/04 07:22:15;;;;;;;13.30;9.65;;;;;;;24.68;62.18;100392.87;1682821;85;25217;-76
2022/07/04 07:24:41;;;;;;;14.00;10.05;;;;;;;24.87;62.39;100397.70;1712478;83;26198;-76
2022/07/04 07:27:08;;;;;;;12.23;10.03;;;;;;;25.04;61.53;100398.18;1712850;83;25494;-76
2022/07/04 07:29:36;;;;;;;11.28;8.28;;;;;;;25.14;61.39;100397.92;1748551;82;28163;-76
2022/07/04 07:32:03;;;;;;;9.68;8.30;;;;;;;25.20;60.69;100395.50;1748873;82;25246;-76
2022/07/04 07:34:29;;;;;;;10.28;8.08;;;;;;;25.22;60.01;100404.20;1748816;82;25380;-77
2022/07/04 07:36:55;;;;;;;13.78;8.88;;;;;;;25.22;59.73;100406.37;1746909;82;25402;-77
2022/07/04 07:39:21;;;;;;;9.80;8.58;;;;;;;25.23;59.31;100412.08;1748489;82;25381;-76
2022/07/04 07:41:48;;;;;;;11.00;8.83;;;;;;;25.19;58.91;100407.78;1748742;82;27414;-76
2022/07/04 07:44:14;;;;;;;9.75;8.23;;;;;;;25.14;58.37;100397.92;1748155;82;25802;-76
2022/07/04 07:46:40;;;;;;;9.75;8.00;;;;;;;25.11;58.24;100399.51;1748326;82;25525;-76
2022/07/04 07:49:07;;;;;;;9.48;7.47;;;;;;;25.11;58.45;100403.66;1748011;82;25637;-76
2022/07/04 07:51:33;;;;;;;9.00;6.37;;;;;;;25.40;59.11;100402.70;1748626;82;25202;-76
2022/07/04 07:53:59;;;;;;;8.90;7.42;;;;;;;25.85;58.93;100399.32;1748656;82;27318;-76
2022/07/04 07:56:26;;;;;;;8.10;6.33;;;;;;;26.38;58.79;100399.17;1748577;82;25639;-76
2022/07/04 07:58:53;;;;;;;9.85;6.45;;;;;;;26.89;57.26;100404.27;1748794;82;25580;-75
2022/07/04 08:01:20;;;;;;;8.28;6.47;;;;;;;27.45;57.14;100403.83;1730319;82;25707;-76
2022/07/04 08:06:33;;;;;;;7.45;5.65;;;;;;;27.80;53.70;100400.84;1747270;82;27378;-76
2022/07/04 08:09:01;;;;;;;6.28;5.20;;;;;;;27.73;51.87;100402.53;1747455;82;25630;-74
2022/07/04 08:11:27;;;;;;;5.15;4.75;;;;;;;27.63;51.47;100399.95;1748565;82;25537;-76
2022/07/04 08:13:53;;;;;;;6.12;5.03;;;;;;;27.45;50.69;100395.49;1748403;82;25583;-76
2022/07/04 08:16:20;;;;;;;5.83;4.60;;;;;;;27.36;51.31;100396.63;1748516;81;25469;-75
2022/07/04 08:18:46;;;;;;;4.90;4.22;;;;;;;27.38;50.85;100400.56;1747964;82;27325;-76
2022/07/04 08:21:13;;;;;;;6.78;4.83;;;;;;;27.78;51.64;100395.70;1748219;82;25651;-76
2022/07/04 08:23:40;;;;;;;6.30;5.70;;;;;;;28.31;50.68;100392.51;1729567;82;25485;-75
2022/07/04 08:26:06;;;;;;;6.97;5.25;;;;;;;28.78;50.25;100394.34;1707293;83;25625;-76
2022/07/04 08:28:33;;;;;;;9.65;5.00;;;;;;;28.88;48.77;100391.91;1707557;84;25640;-76
2022/07/04 08:30:59;;;;;;;5.95;4.78;;;;;;;28.88;47.28;100396.09;1707416;84;27538;-76
2022/07/04 08:33:26;;;;;;;4.90;4.10;;;;;;;29.09;47.92;100394.02;1707593;83;25453;-75
2022/07/04 08:35:53;;;;;;;7.58;4.12;;;;;;;29.40;47.64;100391.69;1707954;83;25604;-75
2022/07/04 08:38:20;;;;;;;4.83;4.40;;;;;;;29.75;46.88;100400.35;1707837;83;26255;-75
2022/07/04 08:40:48;;;;;;;7.15;5.87;;;;;;;29.82;45.28;100393.84;1708185;83;25457;-75
2022/07/04 08:43:15;;;;;;;6.62;5.10;;;;;;;29.91;45.38;100391.19;1707430;83;27366;-75
2022/07/04 08:45:42;;;;;;;5.30;4.70;;;;;;;30.18;44.91;100391.45;1707251;83;25602;-75
2022/07/04 08:48:09;;;;;;;5.15;4.62;;;;;;;30.44;44.84;100382.54;1707330;83;25625;-75
2022/07/04 08:50:41;;;;;;;5.42;3.52;;;;;;;30.68;44.37;100388.62;1706932;83;25793;-75
2022/07/04 08:53:13;;;;;;;3.75;3.45;;;;;;;30.68;43.85;100392.00;1706711;83;25391;-75
2022/07/04 08:58:30;;;;;;;3.85;3.20;;;;;;;31.13;43.34;100377.06;1704681;84;25488;-75
2022/07/04 09:01:14;;;;;;;5.92;4.33;;;;;;;31.65;43.22;100372.13;1705604;83;25622;-75
2022/07/04 09:03:37;;;;;;;6.30;4.15;;;;;;;32.09;42.67;100376.37;1706969;83;25653;-75
2022/07/04 09:06:04;;;;;;;6.10;3.70;;;;;;;32.43;42.03;100372.55;1707059;83;25381;-75
2022/07/04 09:08:31;;;;;;;5.80;3.62;;;;;;;32.60;41.00;100381.48;1707082;83;27498;-75
2022/07/04 09:10:57;;;;;;;4.78;3.83;;;;;;;32.52;40.70;100381.77;1684892;84;25814;-75
2022/07/04 09:13:23;;;;;;;4.62;3.08;;;;;;;32.35;40.05;100380.41;1683063;84;25708;-75
2022/07/04 09:15:51;;;;;;;4.05;3.65;;;;;;;32.14;39.74;100384.80;1706673;83;26292;-75
2022/07/04 09:18:33;;;;;;;4.45;3.30;;;;;;;31.97;39.43;100379.37;1707053;83;25608;-75
2022/07/04 09:21:03;;;;;;;12.80;3.98;;;;;;;32.02;39.89;100377.39;1706940;83;27377;-74
2022/07/04 09:23:33;;;;;;;4.65;3.35;;;;;;;32.39;40.36;100379.68;1706689;83;25560;-74
2022/07/04 09:26:13;;;;;;;5.45;2.83;;;;;;;32.83;39.37;100390.80;1710348;83;25575;-74
2022/07/04 09:28:43;;;;;;;3.35;3.00;;;;;;;32.88;38.10;100390.79;1747710;82;26112;-75
2022/07/04 09:31:22;;;;;;;3.60;2.90;;;;;;;33.10;36.91;100401.31;1747347;82;25398;-75
2022/07/04 09:34:03;;;;;;;6.08;3.12;;;;;;;33.10;36.91;100401.31;1747811;82;27411;-75
2022/07/04 09:36:32;;;;;;;5.62;3.40;;;;;;;33.34;37.62;100385.96;1747616;82;25701;-75
2022/07/04 09:39:15;;;;;;;5.37;2.87;;;;;;;34.00;37.57;100389.13;1747363;82;25557;-73
2022/07/04 09:41:57;;;;;;;5.05;2.80;;;;;;;34.85;36.74;100405.30;1747859;81;25643;-73
2022/07/04 09:44:28;;;;;;;3.58;2.58;;;;;;;35.25;35.85;100404.83;1747576;82;25400;-73
2022/07/04 09:46:56;;;;;;;3.58;2.70;;;;;;;35.25;35.85;100404.83;1745178;82;27381;-73
2022/07/04 09:49:22;;;;;;;;;;;;;;;35.32;35.09;100398.20;1749968;82;25596;-74
2022/07/04 09:51:52;;;;;;;3.25;2.95;;;;;;;35.14;33.87;100399.69;1747907;82;25379;-75
2022/07/04 09:54:26;;;;;;;5.12;3.20;;;;;;;34.90;34.09;100398.27;1747250;82;25566;-74
2022/07/04 09:56:55;;;;;;;5.00;3.20;;;;;;;34.67;33.64;100389.89;1745197;82;25561;-75
2022/07/04 09:59:23;;;;;;;6.90;3.42;;;;;;;34.36;33.77;100391.73;1746573;82;27313;-74
2022/07/04 10:01:51;;;;;;;5.55;2.80;;;;;;;34.07;33.62;100388.01;1747753;82;25407;-75
2022/07/04 10:04:17;;;;;;;6.42;3.42;;;;;;;33.88;34.30;100385.85;1748230;82;25615;-75
2022/07/04 10:06:46;;;;;;;5.83;2.47;;;;;;;34.09;34.85;100382.73;1747116;82;25624;-75
2022/07/04 10:09:19;;;;;;;4.47;2.98;;;;;;;34.36;34.50;100391.73;1747943;82;25405;-75
2022/07/04 10:11:47;;;;;;;4.62;2.40;;;;;;;34.48;32.90;100392.80;1747588;82;27315;-75
2022/07/04 10:14:15;;;;;;;2.50;2.08;;;;;;;34.54;32.55;100389.48;1747972;82;25600;-75
2022/07/04 10:16:42;;;;;;;;;;;;;;;34.70;32.24;100382.73;1749157;82;25638;-75
2022/07/04 10:19:12;;;;;;;4.55;3.00;;;;;;;34.81;31.89;100380.83;1747650;82;25740;-75
2022/07/04 10:21:39;;;;;;;3.47;2.90;;;;;;;34.83;32.21;100376.14;1748079;82;25486;-75
2022/07/04 10:24:06;;;;;;;5.30;2.30;;;;;;;34.80;31.63;100377.86;1732914;82;28013;-75
2022/07/04 10:26:33;;;;;;;3.40;2.58;;;;;;;34.64;31.50;100382.45;1704818;83;25584;-75
2022/07/04 10:28:59;;;;;;;5.37;2.67;;;;;;;34.53;31.75;100385.14;1706766;84;25662;-75
2022/07/04 10:31:29;;;;;;;4.78;2.52;;;;;;;34.57;32.11;100382.16;1706739;83;26219;-75
2022/07/04 10:33:59;;;;;;;7.12;3.47;;;;;;;34.62;32.41;100381.52;1707066;83;25639;-75
2022/07/04 10:36:29;;;;;;;5.30;3.05;;;;;;;34.64;32.40;100379.63;1707017;83;27948;-75
2022/07/04 10:39:04;;;;;;;4.55;2.70;;;;;;;34.61;32.28;100382.12;1706873;83;25627;-74
2022/07/04 10:41:31;;;;;;;3.98;2.67;;;;;;;34.59;32.40;100379.64;1706916;83;25592;-74
2022/07/04 10:44:15;;;;;;;5.30;3.00;;;;;;;34.70;32.24;100372.91;1706918;83;26185;-75
2022/07/04 10:46:49;;;;;;;2.80;2.40;;;;;;;34.82;31.92;100377.38;1705329;84;25461;-74
2022/07/04 10:49:20;;;;;;;4.35;3.95;;;;;;;34.77;31.11;100376.80;1706257;83;27335;-74
2022/07/04 10:51:56;;;;;;;3.98;2.83;;;;;;;34.61;30.82;100383.52;1706473;83;25624;-75
2022/07/04 10:54:31;;;;;;;2.55;2.33;;;;;;;34.65;30.80;100391.00;1685765;83;25447;-75
2022/07/04 10:57:16;;;;;;;3.17;2.20;;;;;;;34.64;30.98;100385.25;1705815;84;25690;-74
2022/07/04 10:59:51;;;;;;;3.62;1.87;;;;;;;34.67;30.67;100380.06;1707160;83;25452;-74
2022/07/04 11:02:29;;;;;;;2.87;2.33;;;;;;;34.75;30.42;100375.70;1694581;84;27311;-74
2022/07/04 11:05:03;;;;;;;6.05;2.92;;;;;;;34.91;29.82;100364.71;1707027;83;25708;-75
2022/07/04 11:07:44;;;;;;;5.25;2.92;;;;;;;35.00;30.17;100364.64;1707087;83;25377;-75
2022/07/04 11:10:21;;;;;;;12.85;4.28;;;;;;;35.13;29.61;100365.83;1706905;83;25713;-75
2022/07/04 11:13:02;;;;;;;5.03;2.95;;;;;;;35.07;29.81;100361.47;1706577;83;25467;-75
2022/07/04 11:15:38;;;;;;;3.30;2.30;;;;;;;35.28;30.30;100366.69;1708209;83;27369;-75
2022/07/04 11:18:14;;;;;;;3.72;2.10;;;;;;;35.56;29.74;100352.41;1706899;83;25612;-75
2022/07/04 11:20:51;;;;;;;7.95;3.15;;;;;;;35.80;29.61;100347.39;1707553;83;25641;-75
2022/07/04 11:23:19;;;;;;;6.53;3.02;;;;;;;35.75;29.04;100355.86;1705758;84;26192;-75
2022/07/04 11:25:54;;;;;;;3.35;2.05;;;;;;;35.77;28.89;100351.16;1706920;83;25613;-74
2022/07/04 11:28:35;;;;;;;2.20;2.00;;;;;;;35.68;28.93;100344.97;1705624;83;27405;-74
2022/07/04 11:31:01;;;;;;;3.58;2.70;;;;;;;35.71;28.77;100342.60;1706953;83;25723;-75
2022/07/04 11:33:34;;;;;;;4.78;2.87;;;;;;;35.77;28.76;100338.50;1707018;83;25565;-74
2022/07/04 11:36:16;;;;;;;4.87;1.80;;;;;;;35.64;28.82;100339.53;1706994;83;25621;-75